x

Central Gulf Of Alaska - 265nm West Of Cape Ommaney, Akk (46085) Wave Buoy

8:50am - Sun 5th Jul 2015 All times are UTC.

  • Sig Wave height 4.9ft
  • Peak Period 8s
  • Average Period 7s
  • Wind
    7mph, 9mph gusts
  • Sea Temp 55°f
  • Air Temp 52°f
  • Sea Pressure 1025.1mb

More Historic Weather Station data

Upgrade to MSW Pro to gain access to the past 30 days of data for over 8000 Wavebouys and Weather Stations around the globe.

Join Pro

Comparision Forecast

View Surf forecast
   
Sun 07/05 8:50am 5ft 8s 7s 7 9 mph 1025.1mb 55f 52f
7:50am 5ft 8s 7s 7 9 mph 1025.3mb 55f 52f
6:50am 5ft 10s 6s 7 9 mph 1025.4mb 55f 52f
5:50am 5ft 9s 7s 4 7 mph 1025mb 55f 52f
4:50am 5ft 8s 6s 7 9 mph 1024.9mb 55f 52f
3:50am 5ft 8s 6s 9 11 mph 1024.6mb 55f 53f
2:50am 5ft 8s 6s 11
mph
1024.4mb 55f 53f
1:50am 5ft 8s 6s 7 9 mph 1024.1mb 55f 53f
12:50am 4.5ft 8s 6s 9 11 mph 1024mb 55f 53f
Sat 07/04 11:50pm 4.5ft 8s 6s 9 11 mph 1023.8mb 55f 53f
10:50pm 4.5ft 9s 6s 11 13 mph 1023.7mb 54f 54f
9:50pm 3.5ft 9s 6s 11 13 mph 1023.4mb 55f 55f
8:50pm 4.5ft 9s  -  7 9 mph 1022.9mb 55f 54f
7:50pm 4ft 9s 6s 7 9 mph 1022.6mb 55f 54f
6:50pm 3.5ft 8s 5s 7 9 mph 1022.5mb 54f 54f
5:50pm 4ft 8s 5s 9 11 mph 1022.3mb 54f 54f
4:50pm 4ft 6s 5s 9
mph
1021.8mb 54f 54f
3:50pm 3.5ft 7s 5s 7 9 mph 1021.4mb 54f 54f
2:50pm 4.5ft 6s 5s 7
mph
1020.9mb 54f 54f
1:50pm 4.5ft 7s 5s 7 9 mph 1020.6mb 54f 54f
12:50pm 4.5ft 7s 5s 11 13 mph 1020.4mb 54f 54f
11:50am 5.5ft 6s 5s 16 20 mph 1020.4mb 54f 54f
10:50am 6ft 6s 5s 20 25 mph 1020.6mb 54f 53f
9:50am 6ft 7s 4s 22 27 mph 1020.9mb 54f 53f
8:50am 6ft 6s 4s 25 27 mph 1021.2mb 54f 53f
7:50am 5.5ft 7s 5s 22 27 mph 1021.5mb 54f 53f
6:50am 4.5ft 6s 4s 20 25 mph 1022.1mb 54f 53f
5:50am 4.5ft 6s 4s 18 22 mph 1022.7mb 54f 54f
4:50am 4ft 5s 4s 18 22 mph 1023mb 54f 53f
3:50am 4ft 4s 4s 16 20 mph 1023.4mb 54f 53f
2:50am 3.5ft 6s 4s 18 20 mph 1023.7mb 54f 53f
1:50am 3.5ft 7s 4s 16 18 mph 1023.9mb 54f 53f
12:50am 3.5ft 7s 5s 16 18 mph 1024.3mb 55f 53f
Fri 07/03 11:50pm 3.5ft 7s 5s 13 16 mph 1024.8mb 55f 53f
10:50pm 4ft 7s 5s 13 16 mph 1025.3mb 54f 53f
9:50pm 4ft 7s 5s 11 13 mph 1025.5mb 55f 53f
8:50pm 4ft 7s 5s 9 11 mph 1025.5mb 55f 53f
7:50pm 4.5ft 7s 6s 11
mph
1025.8mb 55f 53f
6:50pm 4.5ft 6s 6s 11 13 mph 1026mb 54f 53f
5:50pm 4ft 7s 6s 9 11 mph 1026.1mb 54f 53f
4:50pm 4ft 7s 6s 9
mph
1026mb 54f 53f
3:50pm 4ft 7s 6s 9 11 mph 1026mb 54f 53f
2:50pm 4.5ft 7s 6s 9 11 mph 1025.9mb 54f 53f
1:50pm 4.5ft 8s 6s 9 11 mph 1025.7mb 54f 53f
12:50pm 5ft 7s 6s 11 13 mph 1025.4mb 54f 53f
11:50am 4.5ft 7s 6s 11 13 mph 1025.4mb 54f 53f
10:50am 5ft 8s 5s 11 13 mph 1025.3mb 54f 53f
9:50am 5ft 8s 5s 9 11 mph 1025.2mb 54f 53f
8:50am 5.5ft 8s 5s 11 13 mph 1025.4mb 54f 53f
7:50am 5.5ft 8s 5s 11 13 mph 1025.2mb 54f 53f
6:50am 5.5ft 8s 5s 13 16 mph 1025.3mb 54f 53f
5:50am 5.5ft 8s 6s 13 16 mph 1025.1mb 54f 53f
4:50am 5ft 8s 6s 13
mph
1025mb 54f 54f
3:50am 6ft 7s 6s 13 16 mph 1024.9mb 55f 54f
2:50am 5.5ft 9s 6s 13 16 mph 1024.9mb 55f 54f
1:50am 5.5ft 8s 6s 13 16 mph 1024.8mb 55f 54f
12:50am 5.5ft 9s 6s 13 18 mph 1024.6mb 55f 54f
Thu 07/02 11:50pm 6ft 9s 6s 13 16 mph 1024.4mb 54f 54f
10:50pm 6.5ft 6s 6s 16 18 mph 1024mb 54f 54f
9:50pm 7.5ft 9s 6s 13 16 mph 1023.4mb 54f 54f
8:50pm 8ft 9s 6s 13 18 mph 1022.8mb 54f 54f
7:50pm 9ft 8s 6s 13 16 mph 1022.2mb 54f 53f
6:50pm 8.5ft 7s 6s 18 20 mph 1021.6mb 54f 53f
5:50pm 8ft 8s 6s 18 20 mph 1020.9mb 54f 54f
4:50pm 9ft 7s 6s 16 20 mph 1020.1mb 54f 54f
3:50pm 8.5ft 9s 6s 18 20 mph 1018.9mb 54f 54f
2:50pm 8ft 7s 6s 18 22 mph 1017.8mb 54f 53f
1:50pm 8.5ft 7s 6s 20 25 mph 1017mb 54f 53f
12:50pm 9ft 9s 6s 20 25 mph 1016.2mb 54f 53f
11:50am 9ft 7s 6s 22 25 mph 1015mb 54f 53f
10:50am 9ft 6s 6s 25 29 mph 1013.6mb 54f 53f
9:50am 9.5ft 7s 6s 25 31 mph 1012.6mb 54f 53f
8:50am 9.5ft 7s 6s 27 31 mph 1011.2mb 54f 53f
7:50am 8.5ft 6s 5s 29 34 mph 1009.8mb 54f 53f
6:50am 8ft 9s 5s 27 34 mph 1008.5mb 54f 53f
5:50am 8ft 6s 5s 29 36 mph 1006.9mb 54f 53f
4:50am 8ft 5s 5s 29 38 mph 1005.3mb 54f 53f
3:50am 8ft 8s 5s 27 34 mph 1003.9mb 54f 53f
2:50am 8.5ft 7s 5s 25 29 mph 1002.2mb 54f 53f
1:50am 8ft 7s 5s 22 29 mph 1002.2mb 54f 53f
12:50am 7ft 6s 5s 27 31 mph 1003.5mb 54f 53f
Wed 07/01 11:50pm 6ft 6s 5s 27 34 mph 1005.7mb 54f 53f
10:50pm 5.5ft 5s 4s 25 31 mph 1008.3mb 54f 53f
9:50pm 4ft 5s 4s 22 27 mph 1010.4mb 54f 53f
8:50pm 3.5ft 5s 4s 20 25 mph 1012.3mb 54f 53f
7:50pm 4ft 5s 5s 16 20 mph 1014.1mb 54f 52f
6:50pm 3.5ft 5s 4s 13 18 mph 1015.9mb 54f 52f
5:50pm 3.5ft 6s 4s 13 16 mph 1017.2mb 54f 52f
4:50pm 3.5ft 5s 4s 13 16 mph 1018.1mb 54f 52f
3:50pm 4ft 4s 4s 13 18 mph 1018.7mb 54f 53f
2:50pm 3.5ft 6s 4s 16 20 mph 1019.3mb 54f 53f
1:50pm 3.5ft 6s 4s 18 20 mph 1020mb 54f 53f
12:50pm 3.5ft 7s 4s 16 18 mph 1020.6mb 54f 53f
11:50am 3.5ft 7s 5s 16 18 mph 1021.1mb 54f 53f
10:50am 3.5ft 6s 4s 16 18 mph 1021.9mb 54f 53f